Time;durP1;ratioP1;P1;durP2;ratioP2;P2;SDS_P1;SDS_P2;PMS_P1;PMS_P2;Temp;Humidity;BMP_temperature;BMP_pressure;BME280_temperature;BME280_humidity;BME280_pressure;Samples;Min_cycle;Max_cycle;Signal;HPM_P1;HPM_P2
2021/06/02 00:01:47;;;;;;;21.33;6.10;;;11.90;99.90;;;;;;6232777;22;20402;-84
2021/06/02 00:04:17;;;;;;;21.83;6.73;;;11.80;99.90;;;;;;6287791;22;20410;-84
2021/06/02 00:06:49;;;;;;;19.93;6.50;;;11.70;99.90;;;;;;6287534;22;20399;-84
2021/06/02 00:09:23;;;;;;;21.20;6.90;;;11.70;99.90;;;;;;6287672;22;20399;-84
2021/06/02 00:11:55;;;;;;;22.63;8.10;;;11.70;99.90;;;;;;6287790;22;20410;-84
2021/06/02 00:14:41;;;;;;;;;;;;;;;;;;;;;
2021/06/02 00:17:19;;;;;;;;;;;;;;;;;;;;;
2021/06/02 00:19:50;;;;;;;20.87;5.97;;;11.50;99.90;;;;;;6288115;22;20487;-84
2021/06/02 00:22:17;;;;;;;19.80;6.10;;;11.50;99.90;;;;;;6287546;22;20394;-85
2021/06/02 00:24:48;;;;;;;24.27;6.37;;;11.40;99.90;;;;;;6287687;22;20457;-84
2021/06/02 00:27:20;;;;;;;20.00;7.33;;;11.40;99.90;;;;;;6277438;22;20400;-84
2021/06/02 00:30:03;;;;;;;;;;;;;;;;;;;;;
2021/06/02 00:33:05;;;;;;;22.37;9.60;;;11.30;99.90;;;;;;6275224;22;20882;-84
2021/06/02 00:39:23;;;;;;;;;;;;;;;;;;;;;
2021/06/02 00:42:16;;;;;;;21.53;8.93;;;11.30;99.90;;;;;;6094526;23;20443;-84
2021/06/02 00:45:16;;;;;;;;;;;;;;;;;;;;;
2021/06/02 00:47:54;;;;;;;27.33;10.87;;;11.20;99.90;;;;;;6241040;22;20468;-84
2021/06/02 00:50:43;;;;;;;;;;;;;;;;;;;;;
2021/06/02 00:53:12;;;;;;;22.00;15.70;;;11.10;99.90;;;;;;6287407;22;20782;-84
2021/06/02 00:55:44;;;;;;;24.90;14.50;;;11.10;99.90;;;;;;6276958;22;20449;-84
2021/06/02 00:58:44;;;;;;;;;;;;;;;;;;;;;
2021/06/02 01:01:16;;;;;;;20.67;11.97;;;11.10;99.90;;;;;;6287547;22;20705;-85
2021/06/02 01:04:09;;;;;;;;;;;;;;;;;;;;;
2021/06/02 01:06:54;;;;;;;;;;;;;;;;;;;;;
2021/06/02 01:09:44;;;;;;;;;;;;;;;;;;;;;
2021/06/02 01:12:38;;;;;;;19.90;7.90;;;11.00;99.90;;;;;;6249847;22;20398;-84
2021/06/02 01:15:32;;;;;;;21.20;9.00;;;10.90;99.90;;;;;;6260184;22;20909;-84
2021/06/02 01:18:17;;;;;;;24.47;8.13;;;10.90;99.90;;;;;;6268318;22;20414;-84
2021/06/02 01:20:52;;;;;;;19.40;7.53;;;11.10;99.90;;;;;;6277127;22;20398;-84
2021/06/02 01:23:58;;;;;;;;;;;;;;;;;;;;;
2021/06/02 01:29:47;;;;;;;22.43;7.17;;;11.00;99.90;;;;;;6249504;22;20421;-85
2021/06/02 01:32:49;;;;;;;;;;;;;;;;;;;;;
2021/06/02 01:35:41;;;;;;;20.10;8.00;;;10.90;99.90;;;;;;6273250;22;20422;-84
2021/06/02 01:39:00;;;;;;;20.27;7.37;;;10.90;99.90;;;;;;6286592;22;20821;-84
2021/06/02 01:45:16;;;;;;;23.70;9.90;;;10.60;99.90;;;;;;6251925;22;20406;-83
2021/06/02 01:48:18;;;;;;;;;;;;;;;;;;;;;
2021/06/02 01:51:14;;;;;;;;;;;;;;;;;;;;;
2021/06/02 01:54:21;;;;;;;22.13;12.10;;;10.50;99.90;;;;;;6287128;22;20445;-84
2021/06/02 01:57:15;;;;;;;20.00;10.27;;;10.40;99.90;;;;;;6276481;22;20398;-84
2021/06/02 02:00:24;;;;;;;20.90;12.30;;;10.40;99.90;;;;;;6276641;22;20404;-85
2021/06/02 02:03:39;;;;;;;;;;;;;;;;;;;;;
2021/06/02 02:06:43;;;;;;;20.03;10.80;;;10.30;99.90;;;;;;6171597;23;20769;-84
2021/06/02 02:09:48;;;;;;;;;;;;;;;;;;;;;
2021/06/02 02:12:51;;;;;;;23.57;17.63;;;10.20;99.90;;;;;;6182328;23;20881;-84
2021/06/02 02:15:46;;;;;;;;;;;;;;;;;;;;;
2021/06/02 02:22:10;;;;;;;22.30;17.27;;;10.30;99.90;;;;;;6192244;23;20472;-84
2021/06/02 02:25:13;;;;;;;22.37;17.80;;;10.40;99.90;;;;;;6192588;23;20481;-85
2021/06/02 02:27:49;;;;;;;24.80;17.60;;;10.40;99.90;;;;;;6074526;23;21013;-84
2021/06/02 02:30:31;;;;;;;24.10;18.80;;;10.30;99.90;;;;;;6197615;23;20488;-84
2021/06/02 02:33:09;;;;;;;22.60;17.53;;;10.10;99.90;;;;;;6254533;23;20406;-84
2021/06/02 02:35:48;;;;;;;22.20;19.20;;;10.10;99.90;;;;;;6245710;23;20430;-84
2021/06/02 02:38:35;;;;;;;22.70;17.80;;;10.30;99.90;;;;;;6255925;23;20419;-84
2021/06/02 02:41:29;;;;;;;;;;;;;;;;;;;;;
2021/06/02 02:44:12;;;;;;;30.57;24.43;;;10.20;99.90;;;;;;6128707;23;20403;-83
2021/06/02 02:46:45;;;;;;;25.03;21.50;;;10.20;99.90;;;;;;6244078;23;20399;-84
2021/06/02 02:49:36;;;;;;;24.33;16.70;;;10.10;99.90;;;;;;6245882;23;20410;-84
2021/06/02 02:52:15;;;;;;;24.70;19.43;;;10.10;99.90;;;;;;6245760;22;20428;-84
2021/06/02 02:54:49;;;;;;;23.50;17.73;;;10.00;99.90;;;;;;6245736;23;20441;-84
2021/06/02 02:57:40;;;;;;;;;;;;;;;;;;;;;
2021/06/02 03:00:08;;;;;;;23.30;15.93;;;9.90;99.90;;;;;;6245708;23;20407;-84
2021/06/02 03:06:13;;;;;;;21.07;18.00;;;9.70;99.90;;;;;;6204342;22;20797;-82
2021/06/02 03:08:53;;;;;;;21.27;18.00;;;9.70;99.90;;;;;;6276191;22;20399;-83
2021/06/02 03:11:28;;;;;;;23.00;18.53;;;9.70;99.90;;;;;;6286319;22;20410;-81
2021/06/02 03:14:06;;;;;;;23.27;20.77;;;9.70;99.90;;;;;;6286095;22;20426;-81
2021/06/02 03:16:37;;;;;;;26.80;24.00;;;9.70;99.90;;;;;;6275082;22;20893;-82
2021/06/02 03:19:09;;;;;;;28.13;23.97;;;9.70;99.90;;;;;;6275965;22;20398;-81
2021/06/02 03:21:59;;;;;;;29.33;26.77;;;9.70;99.90;;;;;;6276390;22;20405;-83
2021/06/02 03:24:56;;;;;;;28.10;25.40;;;9.70;99.90;;;;;;6276260;22;20399;-82
2021/06/02 03:27:30;;;;;;;34.30;31.33;;;9.60;99.90;;;;;;6285917;22;20414;-83
2021/06/02 03:30:07;;;;;;;36.77;33.97;;;9.60;99.90;;;;;;6286344;22;20870;-81
2021/06/02 03:32:59;;;;;;;38.17;35.17;;;9.60;99.90;;;;;;6273927;22;20487;-81
2021/06/02 03:35:35;;;;;;;35.20;32.07;;;9.70;99.90;;;;;;6276430;22;20425;-80
2021/06/02 03:38:17;;;;;;;39.73;36.30;;;9.60;99.90;;;;;;6286415;22;20492;-80
2021/06/02 03:40:56;;;;;;;39.67;36.10;;;9.60;99.90;;;;;;6277169;22;20398;-81
2021/06/02 03:43:28;;;;;;;37.43;34.50;;;9.70;99.90;;;;;;6287961;22;20935;-80
2021/06/02 03:46:18;;;;;;;29.40;26.87;;;9.70;99.90;;;;;;6278182;22;20711;-80
2021/06/02 03:48:55;;;;;;;34.73;31.80;;;9.60;99.90;;;;;;6286780;22;20430;-81
2021/06/02 03:51:30;;;;;;;36.87;33.57;;;9.60;99.90;;;;;;6277774;22;20432;-81
2021/06/02 03:54:10;;;;;;;30.47;27.87;;;9.70;99.90;;;;;;6278058;22;20517;-81
2021/06/02 03:57:00;;;;;;;29.43;26.93;;;9.70;99.90;;;;;;6278016;22;20451;-81
2021/06/02 03:59:37;;;;;;;31.50;28.60;;;9.70;99.90;;;;;;6278125;22;20405;-80
2021/06/02 04:02:12;;;;;;;29.03;26.53;;;9.70;99.90;;;;;;6276506;22;20434;-81
2021/06/02 04:08:06;;;;;;;35.93;29.00;;;9.80;99.90;;;;;;6253613;22;20410;-83
2021/06/02 04:10:40;;;;;;;31.10;27.90;;;9.90;99.90;;;;;;6277699;22;20430;-78
2021/06/02 04:13:15;;;;;;;28.43;26.03;;;10.00;99.90;;;;;;6277480;22;20890;-78
2021/06/02 04:15:47;;;;;;;30.50;27.87;;;10.00;99.90;;;;;;6277524;22;20401;-78
2021/06/02 04:18:18;;;;;;;27.83;25.47;;;10.00;99.90;;;;;;6276366;22;20404;-77
2021/06/02 04:20:45;;;;;;;28.73;26.20;;;10.00;99.90;;;;;;6277864;22;20912;-79
2021/06/02 04:23:15;;;;;;;30.30;27.70;;;10.10;99.90;;;;;;6277938;22;20405;-77
2021/06/02 04:25:42;;;;;;;31.17;28.27;;;10.10;99.90;;;;;;6277617;22;20394;-78
2021/06/02 04:28:12;;;;;;;34.07;31.27;;;10.10;99.90;;;;;;6277650;22;20740;-83
2021/06/02 04:30:46;;;;;;;30.67;27.53;;;10.20;99.90;;;;;;6287975;22;20456;-82
2021/06/02 04:33:16;;;;;;;30.97;28.03;;;10.30;99.90;;;;;;6275760;22;20421;-83
2021/06/02 04:35:49;;;;;;;30.53;27.77;;;10.30;99.90;;;;;;6277688;22;20403;-83
2021/06/02 04:38:19;;;;;;;31.03;28.00;;;10.40;99.90;;;;;;6277174;22;20968;-83
2021/06/02 04:40:46;;;;;;;36.10;33.00;;;10.50;99.90;;;;;;6277631;22;20399;-82
2021/06/02 04:43:14;;;;;;;40.63;37.63;;;10.70;99.90;;;;;;6287617;22;20413;-83
2021/06/02 04:45:58;;;;;;;41.77;38.30;;;10.70;99.90;;;;;;6277444;22;20402;-82
2021/06/02 04:48:25;;;;;;;40.40;37.20;;;10.80;99.90;;;;;;6276093;22;20404;-83
2021/06/02 04:51:01;;;;;;;36.83;33.73;;;11.00;99.90;;;;;;6277468;22;20437;-83
2021/06/02 04:54:15;;;;;;;37.70;34.10;;;11.10;99.90;;;;;;6277161;22;20501;-82
2021/06/02 04:57:19;;;;;;;26.10;21.20;;;11.40;99.90;;;;;;6233149;22;20909;-82
2021/06/02 05:00:17;;;;;;;23.80;13.93;;;11.70;99.90;;;;;;6277153;22;20394;-82
2021/06/02 05:03:17;;;;;;;26.33;12.60;;;12.00;99.90;;;;;;6275521;22;20924;-83
2021/06/02 05:06:29;;;;;;;24.70;11.23;;;12.20;99.90;;;;;;6276604;22;20417;-90
2021/06/02 05:09:35;;;;;;;30.43;10.27;;;12.30;99.90;;;;;;6277248;22;20398;-82
2021/06/02 05:12:59;;;;;;;24.80;10.03;;;12.40;99.90;;;;;;6253009;22;20472;-82
2021/06/02 05:16:00;;;;;;;24.83;10.87;;;12.50;99.90;;;;;;6182573;23;20983;-82
2021/06/02 05:18:53;;;;;;;24.13;10.43;;;12.70;99.90;;;;;;6181608;23;20900;-81
2021/06/02 05:22:06;;;;;;;25.70;8.03;;;13.30;99.90;;;;;;6251569;22;20491;-81
2021/06/02 05:25:08;;;;;;;30.37;7.50;;;14.20;99.90;;;;;;6276684;22;20461;-82
2021/06/02 05:28:05;;;;;;;34.03;7.70;;;15.00;91.60;;;;;;6286672;22;20452;-80
2021/06/02 05:30:53;;;;;;;39.07;7.70;;;15.80;74.40;;;;;;6286696;22;20489;-80
2021/06/02 05:34:04;;;;;;;40.93;7.70;;;16.70;61.70;;;;;;6274923;22;20964;-80
2021/06/02 05:37:05;;;;;;;49.23;6.93;;;17.50;48.00;;;;;;6123614;23;20419;-80
2021/06/02 05:40:00;;;;;;;47.10;7.27;;;17.80;36.80;;;;;;6285143;22;20839;-82
2021/06/02 05:42:50;;;;;;;48.40;6.50;;;18.30;29.70;;;;;;6275984;22;20395;-80
2021/06/02 05:46:08;;;;;;;50.87;6.50;;;18.90;26.90;;;;;;6276595;22;20816;-82
2021/06/02 05:49:12;;;;;;;55.30;6.70;;;19.10;22.10;;;;;;6167593;23;20443;-79
2021/06/02 05:52:18;;;;;;;56.27;7.07;;;19.40;20.90;;;;;;6182751;23;20487;-79
2021/06/02 05:55:06;;;;;;;58.30;7.13;;;19.40;19.30;;;;;;6202491;22;20437;-80
2021/06/02 05:58:20;;;;;;;57.67;7.40;;;19.80;14.90;;;;;;6286095;22;20412;-79
2021/06/02 06:01:21;;;;;;;58.27;6.97;;;19.90;14.60;;;;;;6213232;22;20889;-80
2021/06/02 06:04:50;;;;;;;;;;;;;;;;;;;;;
2021/06/02 06:07:40;;;;;;;59.67;7.80;;;20.20;12.90;;;;;;6286337;22;20497;-82
2021/06/02 06:10:31;;;;;;;60.63;16.70;;;20.70;11.40;;;;;;6286271;22;20497;-81
2021/06/02 06:13:45;;;;;;;57.60;7.83;;;20.90;11.10;;;;;;6286836;22;20426;-83
2021/06/02 06:23:36;;;;;;;58.07;6.97;;;21.20;7.40;;;;;;6091398;23;20428;-82
2021/06/02 06:26:15;;;;;;;61.63;11.10;;;20.90;5.40;;;;;;6177181;23;20489;-82
2021/06/02 06:28:55;;;;;;;60.67;11.00;;;20.80;5.30;;;;;;6212780;23;20700;-82
2021/06/02 06:31:26;;;;;;;61.73;7.43;;;21.10;5.30;;;;;;6222389;23;20387;-82
2021/06/02 06:33:56;;;;;;;58.23;6.40;;;21.30;3.50;;;;;;6210864;23;20399;-82
2021/06/02 06:37:00;;;;;;;;;;;;;;;;;;;;;
2021/06/02 06:46:26;;;;;;;;;;;;;;;;;;;;;
2021/06/02 07:02:03;;;;;;;;;;;;;;;;;;;;;
2021/06/02 07:05:31;;;;;;;;;;;;;;;;;;;;;
2021/06/02 07:08:30;;;;;;;;;;;;;;;;;;;;;
2021/06/02 07:11:36;;;;;;;58.37;6.33;;;23.40;1.00;;;;;;6317533;22;20372;-83
2021/06/02 07:14:53;;;;;;;;;;;;;;;;;;;;;
2021/06/02 07:20:58;;;;;;;65.60;6.23;;;23.80;1.00;;;;;;6179015;23;20422;-83
2021/06/02 07:23:43;;;;;;;61.37;7.67;;;24.00;1.00;;;;;;6145007;23;20481;-83
2021/06/02 07:26:09;;;;;;;61.97;5.93;;;23.90;1.00;;;;;;6292542;22;20462;-82
2021/06/02 07:29:00;;;;;;;;;;;;;;;;;;;;;
2021/06/02 07:32:03;;;;;;;;;;;;;;;;;;;;;
2021/06/02 07:34:52;;;;;;;;;;;;;;;;;;;;;
2021/06/02 07:37:38;;;;;;;61.90;11.30;;;24.70;1.00;;;;;;6214476;22;20885;-83
2021/06/02 07:40:09;;;;;;;62.50;9.87;;;24.80;1.00;;;;;;6319236;22;20496;-82
2021/06/02 07:42:48;;;;;;;;;;;;;;;;;;;;;
2021/06/02 07:45:16;;;;;;;60.60;8.83;;;25.10;1.00;;;;;;6308496;22;20405;-82
2021/06/02 07:48:05;;;;;;;60.77;9.03;;;25.40;1.00;;;;;;6317803;22;20409;-82
2021/06/02 07:50:32;;;;;;;65.77;11.17;;;25.40;1.00;;;;;;6263187;22;20450;-82
2021/06/02 07:53:00;;;;;;;61.77;11.70;;;25.30;1.00;;;;;;6288525;22;20380;-82
2021/06/02 07:55:32;;;;;;;61.47;12.73;;;25.30;1.00;;;;;;6277912;22;20473;-82
2021/06/02 07:57:58;;;;;;;63.47;12.73;;;25.50;1.00;;;;;;6277753;22;20449;-82
2021/06/02 08:00:37;;;;;;;;;;;;;;;;;;;;;
2021/06/02 08:03:04;;;;;;;62.77;15.63;;;25.80;1.00;;;;;;6276038;22;20468;-82
2021/06/02 08:05:33;;;;;;;67.23;17.10;;;25.80;1.00;;;;;;6277987;22;20775;-82
2021/06/02 08:07:59;;;;;;;63.20;16.20;;;25.90;1.00;;;;;;6277884;22;20402;-82
2021/06/02 08:10:50;;;;;;;;;;;;;;;;;;;;;
2021/06/02 08:13:28;;;;;;;;;;;;;;;;;;;;;
2021/06/02 08:15:54;;;;;;;64.07;18.03;;;26.60;1.00;;;;;;6287875;22;20405;-82
2021/06/02 08:18:26;;;;;;;65.07;19.83;;;26.50;1.00;;;;;;6276161;22;20390;-82
2021/06/02 08:20:52;;;;;;;62.63;18.27;;;26.80;1.00;;;;;;6287296;22;20402;-82
2021/06/02 08:23:19;;;;;;;66.57;19.90;;;26.80;1.00;;;;;;6277350;22;20376;-83
2021/06/02 08:25:45;;;;;;;63.40;19.97;;;27.10;1.00;;;;;;6287389;22;20384;-82
2021/06/02 08:28:50;;;;;;;;;;;;;;;;;;;;;
2021/06/02 08:31:22;;;;;;;64.10;17.67;;;27.20;1.00;;;;;;6184196;22;20433;-86
2021/06/02 08:34:11;;;;;;;;;;;;;;;;;;;;;
2021/06/02 08:37:31;;;;;;;;;;;;;;;;;;;;;
2021/06/02 08:40:23;;;;;;;;;;;;;;;;;;;;;
2021/06/02 08:43:29;;;;;;;64.70;16.40;;;27.60;1.00;;;;;;6214436;22;20388;-84
2021/06/02 08:52:48;;;;;;;;;;;;;;;;;;;;;
2021/06/02 09:05:10;;;;;;;;;;;;;;;;;;;;;
2021/06/02 09:08:25;;;;;;;62.40;13.90;;;28.20;1.00;;;;;;5915831;24;20412;-83
2021/06/02 09:14:26;;;;;;;61.57;13.97;;;28.50;1.00;;;;;;6263894;22;20470;-83
2021/06/02 09:21:01;;;;;;;;;;;;;;;;;;;;;
2021/06/02 09:24:33;;;;;;;;;;;;;;;;;;;;;
2021/06/02 09:28:08;;;;;;;;;;;;;;;;;;;;;
2021/06/02 09:31:16;;;;;;;;;;;;;;;;;;;;;
2021/06/02 10:18:28;;;;;;;61.57;11.10;;;31.20;1.00;;;;;;6262790;22;20901;-87
2021/06/02 10:45:09;;;;;;;63.50;9.67;;;30.90;1.00;;;;;;6093926;23;20439;-83
2021/06/02 10:50:43;;;;;;;62.07;8.80;;;31.30;1.00;;;;;;6215091;23;20726;-89
2021/06/02 10:59:34;;;;;;;62.80;11.87;;;31.70;1.00;;;;;;6278127;22;20414;-87
2021/06/02 11:17:18;;;;;;;60.73;9.00;;;32.60;1.00;;;;;;6057502;23;20424;-85
2021/06/02 11:43:16;;;;;;;59.90;6.70;;;32.80;1.00;;;;;;6052213;23;20256;-87
2021/06/02 11:49:54;;;;;;;60.67;7.40;;;33.10;1.00;;;;;;5870561;24;20749;-89
2021/06/02 11:55:28;;;;;;;62.80;7.47;;;32.80;1.00;;;;;;6261422;22;20445;-85
2021/06/02 12:14:25;;;;;;;60.00;6.70;;;33.80;1.00;;;;;;6107026;23;20392;-86
2021/06/02 12:17:05;;;;;;;59.37;6.30;;;33.30;1.00;;;;;;6161850;23;20409;-88
2021/06/02 12:19:34;;;;;;;60.10;6.10;;;32.90;1.00;;;;;;6192664;22;20398;-85
2021/06/02 12:22:11;;;;;;;59.50;6.37;;;33.30;1.00;;;;;;6246687;23;20377;-87
2021/06/02 12:24:37;;;;;;;59.73;6.00;;;33.70;1.00;;;;;;6257017;23;20406;-91
2021/06/02 12:27:16;;;;;;;62.10;5.73;;;33.90;1.00;;;;;;6247042;23;20382;-82
2021/06/02 12:29:46;;;;;;;59.17;6.30;;;34.00;1.00;;;;;;6256793;23;20403;-88
2021/06/02 12:32:13;;;;;;;58.87;5.63;;;34.30;1.00;;;;;;6255402;23;20509;-91
2021/06/02 12:34:57;;;;;;;59.80;6.03;;;34.30;1.00;;;;;;6248230;23;20406;-88
2021/06/02 12:50:53;;;;;;;59.57;5.50;;;33.70;1.00;;;;;;6246203;22;20409;-84
2021/06/02 12:53:23;;;;;;;60.47;5.10;;;34.00;1.00;;;;;;6257090;23;20393;-93
2021/06/02 12:55:53;;;;;;;58.60;5.30;;;34.30;1.00;;;;;;6257167;23;20410;-89
2021/06/02 12:58:45;;;;;;;59.77;5.70;;;34.50;1.00;;;;;;6246929;23;20410;-90
2021/06/02 13:01:15;;;;;;;59.50;4.80;;;34.30;1.00;;;;;;6257188;23;20411;-90
2021/06/02 13:03:46;;;;;;;60.80;5.40;;;34.90;1.00;;;;;;6255582;23;20764;-89
2021/06/02 13:06:26;;;;;;;59.77;5.40;;;35.60;1.00;;;;;;6257138;23;20403;-89
2021/06/02 13:08:53;;;;;;;60.47;5.80;;;34.40;1.00;;;;;;6257106;23;20407;-89
2021/06/02 13:11:24;;;;;;;61.47;5.73;;;35.00;1.00;;;;;;6246888;23;20399;-86
2021/06/02 13:13:59;;;;;;;59.07;5.17;;;35.00;1.00;;;;;;6256364;23;20437;-87
2021/06/02 13:16:34;;;;;;;60.77;5.90;;;34.80;1.00;;;;;;6256469;23;20496;-83
2021/06/02 13:19:05;;;;;;;64.57;5.97;;;34.90;1.00;;;;;;6255523;23;20414;-89
2021/06/02 13:21:36;;;;;;;59.90;5.30;;;34.70;1.00;;;;;;6246741;23;20423;-91
2021/06/02 13:53:13;;;;;;;61.70;5.27;;;34.80;1.00;;;;;;6277784;22;20385;-91
2021/06/02 13:55:39;;;;;;;63.00;4.87;;;35.40;1.00;;;;;;6286601;22;20813;-92
2021/06/02 14:41:55;;;;;;;;;;;;;;;;;;;;;
2021/06/02 14:57:50;;;;;;;60.27;5.20;;;35.70;1.00;;;;;;6007756;23;20424;-85
2021/06/02 18:02:06;;;;;;;62.27;11.90;;;33.70;1.00;;;;;;6203655;22;20928;-86
2021/06/02 18:10:28;;;;;;;62.47;11.70;;;31.40;1.00;;;;;;6230126;22;20460;-90
2021/06/02 18:12:57;;;;;;;62.13;12.17;;;29.90;1.00;;;;;;6286502;22;20752;-84
2021/06/02 18:15:33;;;;;;;62.70;11.17;;;29.20;1.00;;;;;;6286389;22;20437;-87
2021/06/02 18:18:09;;;;;;;61.90;10.50;;;29.30;1.00;;;;;;6275040;22;20395;-86
2021/06/02 18:20:37;;;;;;;59.20;9.50;;;29.90;1.00;;;;;;6286275;22;20409;-85
2021/06/02 18:23:04;;;;;;;59.73;9.37;;;28.60;1.00;;;;;;6286768;22;20467;-85
2021/06/02 18:25:33;;;;;;;59.87;9.70;;;27.50;1.00;;;;;;6286741;22;20505;-86
2021/06/02 18:28:03;;;;;;;58.87;9.07;;;26.70;1.00;;;;;;6286725;22;20413;-84
2021/06/02 18:30:34;;;;;;;59.17;9.03;;;26.30;1.00;;;;;;6286588;22;20459;-86
2021/06/02 18:33:02;;;;;;;58.23;8.70;;;25.80;1.00;;;;;;6285443;22;20433;-84
2021/06/02 18:35:28;;;;;;;57.17;8.70;;;26.20;1.00;;;;;;6276560;22;20404;-83
2021/06/02 18:37:55;;;;;;;56.70;8.03;;;26.10;1.00;;;;;;6276298;22;20817;-88
2021/06/02 18:40:22;;;;;;;56.73;7.60;;;26.00;1.00;;;;;;6276505;22;20373;-87
2021/06/02 18:42:48;;;;;;;57.57;7.00;;;25.80;1.00;;;;;;6286347;22;20902;-87
2021/06/02 18:45:16;;;;;;;56.37;7.00;;;25.20;1.00;;;;;;6273837;22;20406;-87
2021/06/02 18:47:42;;;;;;;55.93;6.50;;;24.70;1.00;;;;;;6254903;23;20407;-88
2021/06/02 18:50:13;;;;;;;54.10;5.20;;;24.40;1.00;;;;;;6255530;23;20880;-85
2021/06/02 18:52:42;;;;;;;55.07;5.00;;;24.00;1.00;;;;;;6245288;23;20399;-87
2021/06/02 18:55:10;;;;;;;54.90;5.80;;;23.90;1.00;;;;;;6245498;23;20539;-87
2021/06/02 18:57:43;;;;;;;54.67;4.40;;;23.80;1.00;;;;;;6255289;23;20410;-87
2021/06/02 19:00:11;;;;;;;53.27;3.60;;;23.60;1.00;;;;;;6255785;23;20415;-86
2021/06/02 19:02:39;;;;;;;53.10;4.20;;;23.50;1.00;;;;;;6243748;23;20413;-86
2021/06/02 19:05:08;;;;;;;54.07;4.50;;;23.30;1.00;;;;;;6245683;23;20482;-87
2021/06/02 19:07:39;;;;;;;53.67;4.13;;;23.20;1.00;;;;;;6245959;23;20410;-87
2021/06/02 19:10:09;;;;;;;52.70;3.80;;;23.20;1.00;;;;;;6246539;23;20701;-86
2021/06/02 19:12:36;;;;;;;52.20;4.00;;;23.20;1.00;;;;;;6257739;23;20434;-86
2021/06/02 19:15:02;;;;;;;52.10;3.70;;;23.70;1.00;;;;;;6247226;23;20942;-86
2021/06/02 19:17:32;;;;;;;52.40;3.70;;;23.90;1.00;;;;;;6246190;23;20417;-86
2021/06/02 19:19:58;;;;;;;51.87;3.83;;;23.70;1.00;;;;;;6257661;23;20410;-88
2021/06/02 19:22:25;;;;;;;50.90;3.40;;;23.50;1.00;;;;;;6247350;23;20399;-86
2021/06/02 19:24:57;;;;;;;51.40;3.90;;;23.20;1.00;;;;;;6257343;23;20449;-85
2021/06/02 19:31:31;;;;;;;;;;;;;;;;;;;;;
2021/06/02 19:34:15;;;;;;;51.60;4.10;;;22.90;1.00;;;;;;6030988;23;20418;-85
2021/06/02 19:36:56;;;;;;;50.67;3.47;;;22.80;1.00;;;;;;6236232;23;20409;-84
2021/06/02 20:04:32;;;;;;;51.07;4.70;;;22.60;1.00;;;;;;6042395;23;20727;-83
2021/06/02 20:06:59;;;;;;;50.93;4.20;;;22.40;1.00;;;;;;6215192;23;20419;-80
2021/06/02 20:09:26;;;;;;;51.93;4.13;;;22.10;1.00;;;;;;6246750;23;20395;-81
2021/06/02 20:11:57;;;;;;;53.40;3.67;;;21.90;1.00;;;;;;6256590;23;20414;-81
2021/06/02 20:14:23;;;;;;;50.20;3.80;;;21.60;1.00;;;;;;6246878;23;20399;-81
2021/06/02 20:16:50;;;;;;;48.60;3.20;;;21.30;1.00;;;;;;6245581;23;20430;-80
2021/06/02 20:19:17;;;;;;;49.87;3.30;;;21.20;1.00;;;;;;6256880;23;20382;-81
2021/06/02 20:21:48;;;;;;;49.10;3.87;;;21.20;1.00;;;;;;6246868;23;20371;-82
2021/06/02 20:24:18;;;;;;;49.20;4.00;;;21.10;1.00;;;;;;6257402;23;20382;-83
2021/06/02 20:26:45;;;;;;;48.67;4.27;;;20.90;2.80;;;;;;6246611;23;20378;-84
2021/06/02 20:29:15;;;;;;;50.07;4.87;;;20.90;5.20;;;;;;6257448;23;20411;-83
2021/06/02 20:34:30;;;;;;;48.33;4.17;;;20.70;10.40;;;;;;6257274;23;20376;-83
2021/06/02 20:37:00;;;;;;;48.77;3.80;;;20.50;10.90;;;;;;6256881;23;20431;-83
2021/06/02 20:39:30;;;;;;;49.80;4.90;;;20.30;13.00;;;;;;6247460;23;20449;-83
2021/06/02 20:42:07;;;;;;;49.47;5.20;;;20.20;13.70;;;;;;6247189;23;20400;-82
2021/06/02 20:44:45;;;;;;;50.20;5.10;;;20.40;12.50;;;;;;6243715;23;20378;-82
2021/06/02 20:47:22;;;;;;;;;;;;;;;;;;;;;
2021/06/02 20:49:50;;;;;;;55.30;5.43;;;20.40;13.40;;;;;;6215894;23;20375;-83
2021/06/02 20:52:18;;;;;;;52.87;5.80;;;20.30;14.20;;;;;;6226830;23;20407;-83
2021/06/02 20:54:46;;;;;;;48.37;5.83;;;20.20;16.70;;;;;;6216588;23;20407;-83
2021/06/02 20:57:15;;;;;;;49.00;5.40;;;20.10;17.20;;;;;;6216234;23;20455;-82
2021/06/02 20:59:44;;;;;;;49.80;4.80;;;20.00;19.70;;;;;;6216144;23;20532;-83
2021/06/02 21:02:13;;;;;;;50.60;4.90;;;19.90;21.80;;;;;;6224626;23;21189;-83
2021/06/02 21:04:42;;;;;;;48.00;4.30;;;19.80;24.40;;;;;;6226480;23;20436;-83
2021/06/02 21:07:11;;;;;;;48.57;4.70;;;19.60;25.60;;;;;;6216213;23;20966;-83
2021/06/02 21:09:40;;;;;;;48.90;5.37;;;19.50;29.80;;;;;;6216662;23;20381;-83
2021/06/02 21:12:10;;;;;;;48.00;4.77;;;19.50;30.80;;;;;;6216051;23;20847;-82
2021/06/02 21:14:39;;;;;;;48.57;4.57;;;19.50;29.60;;;;;;6216306;23;20408;-83
2021/06/02 21:17:08;;;;;;;48.17;4.93;;;19.40;31.40;;;;;;6225107;23;20402;-83
2021/06/02 21:19:39;;;;;;;48.13;4.33;;;19.40;34.70;;;;;;6216005;23;20404;-83
2021/06/02 21:22:17;;;;;;;;;;;;;;;;;;;;;
2021/06/02 21:25:00;;;;;;;48.57;4.23;;;19.30;38.10;;;;;;6215575;23;20512;-83
2021/06/02 21:27:26;;;;;;;47.43;4.63;;;19.30;42.30;;;;;;6214523;23;20434;-83
2021/06/02 21:30:00;;;;;;;53.60;5.97;;;19.10;47.30;;;;;;6226348;23;20379;-83
2021/06/02 21:32:30;;;;;;;47.50;4.90;;;19.10;50.50;;;;;;6214604;23;20731;-84
2021/06/02 21:35:02;;;;;;;52.13;4.60;;;19.00;50.10;;;;;;6215293;23;20400;-82
2021/06/02 21:37:31;;;;;;;47.90;4.63;;;18.90;43.40;;;;;;6226155;23;20730;-85
2021/06/02 21:39:58;;;;;;;46.97;4.80;;;19.00;39.30;;;;;;6216107;23;20406;-84
2021/06/02 21:42:26;;;;;;;47.60;5.07;;;18.90;38.50;;;;;;6215750;23;20405;-83
2021/06/02 21:44:54;;;;;;;47.90;5.60;;;18.90;40.00;;;;;;6216078;23;20439;-82
2021/06/02 21:47:24;;;;;;;46.53;5.00;;;18.90;40.70;;;;;;6214169;23;20407;-83
2021/06/02 21:49:54;;;;;;;45.97;5.00;;;18.90;45.00;;;;;;6225729;23;20430;-83
2021/06/02 21:52:20;;;;;;;46.70;4.70;;;18.90;45.60;;;;;;6215921;23;20401;-82
2021/06/02 21:54:47;;;;;;;47.90;5.07;;;19.00;46.90;;;;;;6216192;23;20450;-83
2021/06/02 21:57:26;;;;;;;47.13;5.67;;;19.00;49.90;;;;;;6215390;23;20459;-83
2021/06/02 21:59:58;;;;;;;47.67;4.50;;;18.90;52.20;;;;;;6225792;23;20404;-82
2021/06/02 22:02:28;;;;;;;45.67;5.30;;;18.90;48.50;;;;;;6224377;23;20412;-83
2021/06/02 22:04:54;;;;;;;46.60;5.40;;;18.80;52.10;;;;;;6216006;23;20817;-82
2021/06/02 22:07:25;;;;;;;43.50;4.90;;;18.70;52.00;;;;;;6215894;23;20382;-82
2021/06/02 22:09:53;;;;;;;45.93;5.30;;;18.60;49.40;;;;;;6215981;23;20400;-83
2021/06/02 22:12:23;;;;;;;45.07;4.70;;;18.50;49.90;;;;;;6225478;23;20871;-85
2021/06/02 22:14:49;;;;;;;43.67;4.67;;;18.50;51.80;;;;;;6215909;23;20400;-86
2021/06/02 22:17:34;;;;;;;44.23;4.07;;;18.50;51.80;;;;;;6213802;23;20436;-83
2021/06/02 22:20:12;;;;;;;43.77;4.27;;;18.60;46.30;;;;;;6225122;23;20383;-83
2021/06/02 22:23:03;;;;;;;43.20;4.20;;;18.50;41.70;;;;;;6225664;23;20415;-84
2021/06/02 22:25:29;;;;;;;42.93;4.10;;;18.90;37.30;;;;;;6215714;23;20773;-83
2021/06/02 22:28:14;;;;;;;44.00;4.20;;;19.20;34.70;;;;;;6215926;23;20439;-83
2021/06/02 22:30:58;;;;;;;45.00;4.40;;;19.50;32.10;;;;;;6225447;23;20408;-84
2021/06/02 22:33:30;;;;;;;45.20;4.20;;;19.60;33.10;;;;;;6223801;23;20412;-83
2021/06/02 22:35:58;;;;;;;45.60;4.70;;;19.60;32.50;;;;;;6215636;23;20494;-82
2021/06/02 22:38:30;;;;;;;46.30;4.33;;;19.80;32.00;;;;;;6225685;23;20404;-85
2021/06/02 22:41:09;;;;;;;46.40;4.43;;;19.90;30.00;;;;;;6215324;23;20407;-84
2021/06/02 22:44:29;;;;;;;52.47;5.63;;;20.00;30.80;;;;;;6214997;23;20400;-84
2021/06/02 22:47:20;;;;;;;50.30;5.10;;;20.00;31.40;;;;;;6208839;23;20945;-85
2021/06/02 22:49:55;;;;;;;50.90;5.80;;;19.90;33.30;;;;;;6225381;23;20772;-84
2021/06/02 22:52:33;;;;;;;52.00;5.23;;;19.90;33.90;;;;;;6225746;23;20623;-84
2021/06/02 22:55:02;;;;;;;49.53;5.43;;;19.90;35.20;;;;;;6215469;23;20407;-88
2021/06/02 22:57:28;;;;;;;49.43;5.70;;;19.90;35.20;;;;;;6215228;23;20978;-87
2021/06/02 23:00:35;;;;;;;;;;;;;;;;;;;;;
2021/06/02 23:03:05;;;;;;;50.57;6.40;;;19.90;38.40;;;;;;6193808;23;20408;-87
2021/06/02 23:05:37;;;;;;;51.37;6.20;;;20.20;35.50;;;;;;6215666;23;20699;-85
2021/06/02 23:08:23;;;;;;;;;;;;;;;;;;;;;
2021/06/02 23:10:56;;;;;;;55.10;5.80;;;20.30;34.20;;;;;;6172999;23;20414;-87
2021/06/02 23:13:25;;;;;;;52.10;5.70;;;20.40;32.50;;;;;;6214799;23;20899;-87
2021/06/02 23:16:18;;;;;;;49.80;4.60;;;20.40;32.50;;;;;;6215172;23;20919;-85
2021/06/02 23:18:59;;;;;;;51.10;5.77;;;20.20;31.90;;;;;;6223731;23;20404;-85
2021/06/02 23:21:35;;;;;;;49.93;3.97;;;20.20;30.30;;;;;;6225294;23;20411;-85
2021/06/02 23:24:12;;;;;;;50.50;5.50;;;20.10;29.30;;;;;;6224861;23;20407;-86
2021/06/02 23:26:40;;;;;;;50.50;4.90;;;20.00;28.80;;;;;;6215510;23;20410;-85
2021/06/02 23:29:37;;;;;;;;;;;;;;;;;;;;;
2021/06/02 23:32:14;;;;;;;;;;;;;;;;;;;;;
2021/06/02 23:34:45;;;;;;;48.67;4.67;;;19.80;29.90;;;;;;6194124;23;20884;-85
2021/06/02 23:37:11;;;;;;;49.87;5.50;;;19.80;30.60;;;;;;6215430;23;20456;-85
2021/06/02 23:39:45;;;;;;;49.00;4.67;;;19.70;29.20;;;;;;6214906;23;20414;-85
2021/06/02 23:42:30;;;;;;;49.80;5.10;;;19.60;29.20;;;;;;6225285;23;20410;-83